createdAt,value
2022-12-16T00:01:11.105Z,20.87
2022-12-16T00:03:39.474Z,20.87
2022-12-16T00:06:08.476Z,20.23
2022-12-16T00:08:37.961Z,21.57
2022-12-16T00:11:05.695Z,20.60
2022-12-16T00:13:35.019Z,21.83
2022-12-16T00:16:07.199Z,22.70
2022-12-16T00:18:35.525Z,21.07
2022-12-16T00:21:02.551Z,20.47
2022-12-16T00:23:30.323Z,20.33
2022-12-16T00:25:57.366Z,21.70
2022-12-16T00:28:24.430Z,21.40
2022-12-16T00:30:52.833Z,20.73
2022-12-16T00:33:24.010Z,20.57
2022-12-16T00:35:51.237Z,20.07
2022-12-16T00:38:19.166Z,19.33
2022-12-16T00:40:46.028Z,20.70
2022-12-16T00:43:13.337Z,18.80
2022-12-16T00:45:40.211Z,21.03
2022-12-16T00:48:07.582Z,21.50
2022-12-16T00:50:35.615Z,19.03
2022-12-16T00:53:02.867Z,21.50
2022-12-16T00:55:29.941Z,20.67
2022-12-16T00:57:56.862Z,20.47
2022-12-16T01:00:24.211Z,20.33
2022-12-16T01:02:51.662Z,21.23
2022-12-16T01:05:21.976Z,21.20
2022-12-16T01:07:48.673Z,21.27
2022-12-16T01:10:15.478Z,20.47
2022-12-16T01:12:42.252Z,20.20
2022-12-16T01:15:12.531Z,19.73
2022-12-16T01:17:39.797Z,21.33
2022-12-16T01:20:07.674Z,20.23
2022-12-16T01:22:35.095Z,21.53
2022-12-16T01:25:02.421Z,19.60
2022-12-16T01:27:29.552Z,20.50
2022-12-16T01:29:56.686Z,20.83
2022-12-16T01:32:23.869Z,22.00
2022-12-16T01:34:55.252Z,20.83
2022-12-16T01:37:23.609Z,21.47
2022-12-16T01:39:51.076Z,21.33
2022-12-16T01:42:21.722Z,20.63
2022-12-16T01:44:51.904Z,19.10
2022-12-16T01:47:32.586Z,20.13
2022-12-16T01:50:04.122Z,19.50
2022-12-16T01:52:35.002Z,21.13
2022-12-16T01:55:07.926Z,21.53
2022-12-16T01:57:40.933Z,20.87
2022-12-16T02:00:10.455Z,20.60
2022-12-16T02:02:37.551Z,21.47
2022-12-16T02:05:20.423Z,21.17
2022-12-16T02:07:59.502Z,20.87
2022-12-16T02:10:44.449Z,20.43
2022-12-16T02:13:39.030Z,20.63
2022-12-16T02:16:17.631Z,20.27
2022-12-16T02:19:18.182Z,19.93
2022-12-16T02:21:44.801Z,19.37
2022-12-16T02:24:39.091Z,19.77
2022-12-16T02:27:17.845Z,20.27
2022-12-16T02:29:54.181Z,19.50
2022-12-16T02:32:31.688Z,19.73
2022-12-16T02:35:16.987Z,19.53
2022-12-16T02:38:04.657Z,18.43
2022-12-16T02:40:56.599Z,20.23
2022-12-16T02:43:50.531Z,18.17
2022-12-16T02:46:19.242Z,19.77
2022-12-16T02:48:46.104Z,20.37
2022-12-16T02:51:13.207Z,21.27
2022-12-16T02:53:42.717Z,21.30
2022-12-16T02:56:35.086Z,20.07
2022-12-16T02:59:29.317Z,20.80
2022-12-16T03:02:10.283Z,20.10
2022-12-16T03:04:51.900Z,21.00
2022-12-16T03:07:22.388Z,22.17
2022-12-16T03:09:50.507Z,21.53
2022-12-16T03:12:19.917Z,22.53
2022-12-16T03:14:50.998Z,20.70
2022-12-16T03:17:19.849Z,21.47
2022-12-16T03:20:07.102Z,21.60
2022-12-16T03:22:38.033Z,21.33
2022-12-16T03:25:07.598Z,22.27
2022-12-16T03:27:46.121Z,21.30
2022-12-16T03:30:28.632Z,21.57
2022-12-16T03:33:07.438Z,22.20
2022-12-16T03:35:48.121Z,21.53
2022-12-16T03:38:16.137Z,21.57
2022-12-16T03:40:44.651Z,22.07
2022-12-16T03:43:16.512Z,21.67
2022-12-16T03:45:48.403Z,19.73
2022-12-16T03:48:16.909Z,21.87
2022-12-16T03:50:43.636Z,21.03
2022-12-16T03:53:10.347Z,21.07
2022-12-16T03:55:37.109Z,19.93
2022-12-16T03:58:04.020Z,20.50
2022-12-16T04:00:30.755Z,21.37
2022-12-16T04:02:57.659Z,20.03
2022-12-16T04:05:24.603Z,20.63
2022-12-16T04:07:51.684Z,20.73
2022-12-16T04:10:38.480Z,20.27
2022-12-16T04:13:23.699Z,18.83
2022-12-16T04:16:09.191Z,20.40
2022-12-16T04:18:54.482Z,19.77
2022-12-16T04:21:39.932Z,19.30
2022-12-16T04:24:21.486Z,19.87
2022-12-16T04:27:11.914Z,20.83
2022-12-16T04:30:00.452Z,20.37
2022-12-16T04:32:27.273Z,20.73
2022-12-16T04:34:53.975Z,19.97
2022-12-16T04:37:39.251Z,20.30
2022-12-16T04:40:25.218Z,20.50
2022-12-16T04:43:10.732Z,19.30
2022-12-16T04:46:14.485Z,19.20
2022-12-16T04:48:59.702Z,18.83
2022-12-16T04:51:52.878Z,18.93
2022-12-16T04:54:38.257Z,18.33
2022-12-16T04:57:23.678Z,18.70
2022-12-16T05:00:09.220Z,17.73
2022-12-16T05:02:54.674Z,18.63
2022-12-16T05:05:40.010Z,18.20
2022-12-16T05:08:25.473Z,18.30
2022-12-16T05:11:10.889Z,17.63
2022-12-16T05:13:56.139Z,16.90
2022-12-16T05:16:41.555Z,17.00
2022-12-16T05:19:31.610Z,17.83
2022-12-16T05:22:17.182Z,16.60
2022-12-16T05:25:22.290Z,17.23
2022-12-16T05:28:11.610Z,16.10
2022-12-16T05:30:57.277Z,16.07
2022-12-16T05:33:43.157Z,17.93
2022-12-16T05:36:28.621Z,17.30
2022-12-16T05:39:14.087Z,16.83
2022-12-16T05:41:59.583Z,15.97
2022-12-16T05:44:45.400Z,17.33
2022-12-16T05:47:32.092Z,17.13
2022-12-16T05:50:17.513Z,16.83
2022-12-16T05:53:13.845Z,15.93
2022-12-16T05:56:00.285Z,15.60
2022-12-16T05:58:46.872Z,15.40
2022-12-16T06:01:33.394Z,16.03
2022-12-16T06:04:18.892Z,16.77
2022-12-16T06:07:04.184Z,15.67
2022-12-16T06:09:54.636Z,16.13
2022-12-16T06:12:41.747Z,14.50
2022-12-16T06:15:27.641Z,15.93
2022-12-16T06:18:13.310Z,15.87
2022-12-16T06:20:58.433Z,15.23
2022-12-16T06:23:43.934Z,16.00
2022-12-16T06:26:29.462Z,15.20
2022-12-16T06:29:14.977Z,14.77
2022-12-16T06:32:00.616Z,15.37
2022-12-16T06:34:45.813Z,15.53
2022-12-16T06:37:31.391Z,14.67
2022-12-16T06:40:16.876Z,15.53
2022-12-16T06:43:02.341Z,15.17
2022-12-16T06:45:48.077Z,15.93
2022-12-16T06:48:33.518Z,15.73
2022-12-16T06:51:19.002Z,15.07
2022-12-16T06:54:04.474Z,15.97
2022-12-16T06:56:49.873Z,15.13
2022-12-16T06:59:36.298Z,15.73
2022-12-16T07:02:22.048Z,15.27
2022-12-16T07:05:07.685Z,15.43
2022-12-16T07:07:53.094Z,14.60
2022-12-16T07:10:38.597Z,16.27
2022-12-16T07:13:24.094Z,14.87
2022-12-16T07:16:09.572Z,15.33
2022-12-16T07:18:54.758Z,14.50
2022-12-16T07:21:40.529Z,15.47
2022-12-16T07:24:26.065Z,16.10
2022-12-16T07:27:11.541Z,15.07
2022-12-16T07:29:56.999Z,15.67
2022-12-16T07:32:42.428Z,14.80
2022-12-16T07:35:27.739Z,13.10
2022-12-16T07:38:13.183Z,11.07
2022-12-16T07:40:58.648Z,13.33
2022-12-16T07:43:43.857Z,13.50
2022-12-16T07:46:29.451Z,13.80
2022-12-16T07:49:14.662Z,13.10
2022-12-16T07:52:00.252Z,13.33
2022-12-16T07:54:45.536Z,14.73
2022-12-16T07:57:31.065Z,12.90
2022-12-16T08:00:16.538Z,13.53
2022-12-16T08:03:02.176Z,12.50
2022-12-16T08:05:47.473Z,13.63
2022-12-16T08:08:32.984Z,12.00
2022-12-16T08:11:18.590Z,11.50
2022-12-16T08:14:03.990Z,11.63
2022-12-16T08:16:49.457Z,14.97
2022-12-16T08:19:35.065Z,11.80
2022-12-16T08:22:20.415Z,10.70
2022-12-16T08:25:05.927Z,9.60
2022-12-16T08:27:51.175Z,10.83
2022-12-16T08:30:36.817Z,9.47
2022-12-16T08:33:22.549Z,8.77
2022-12-16T08:36:07.750Z,10.43
2022-12-16T08:38:54.198Z,10.23
2022-12-16T08:41:41.261Z,10.97
2022-12-16T08:44:26.832Z,9.93
2022-12-16T08:47:12.231Z,11.17
2022-12-16T08:49:59.918Z,11.47
2022-12-16T08:52:47.586Z,10.37
2022-12-16T08:55:33.185Z,10.37
2022-12-16T08:58:18.635Z,10.80
2022-12-16T09:01:07.384Z,10.30
2022-12-16T09:03:56.135Z,10.00
2022-12-16T09:06:41.773Z,10.83
2022-12-16T09:09:28.394Z,10.00
2022-12-16T09:12:13.927Z,9.60
2022-12-16T09:14:59.451Z,10.60
2022-12-16T09:17:44.925Z,10.37
2022-12-16T09:20:30.502Z,9.70
2022-12-16T09:23:15.905Z,9.73
2022-12-16T09:26:01.333Z,8.97
2022-12-16T09:28:46.943Z,9.47
2022-12-16T09:31:32.482Z,9.83
2022-12-16T09:34:17.858Z,9.53
2022-12-16T09:37:03.161Z,9.53
2022-12-16T09:39:48.692Z,8.40
2022-12-16T09:42:55.531Z,9.03
2022-12-16T09:45:52.971Z,9.03
2022-12-16T09:49:01.085Z,8.80
2022-12-16T09:51:47.542Z,8.13
2022-12-16T09:54:37.698Z,7.67
2022-12-16T09:57:25.793Z,7.27
2022-12-16T10:00:20.796Z,6.97
2022-12-16T10:03:09.176Z,6.70
2022-12-16T10:06:08.962Z,6.53
2022-12-16T10:09:03.085Z,7.03
2022-12-16T10:12:29.918Z,5.80
2022-12-16T10:15:46.908Z,6.70
2022-12-16T10:18:43.400Z,5.93
2022-12-16T10:21:37.302Z,6.37
2022-12-16T10:24:35.899Z,7.17
2022-12-16T10:27:35.677Z,5.80
2022-12-16T10:30:22.461Z,6.57
2022-12-16T10:33:09.793Z,5.20
2022-12-16T10:36:07.765Z,5.40
2022-12-16T10:39:00.151Z,4.90
2022-12-16T10:41:50.515Z,5.53
2022-12-16T10:44:56.933Z,4.53
2022-12-16T10:47:43.140Z,4.63
2022-12-16T10:50:32.656Z,4.80
2022-12-16T10:53:21.045Z,3.93
2022-12-16T10:56:31.085Z,3.53
2022-12-16T10:59:21.976Z,3.83
2022-12-16T11:02:36.372Z,3.93
2022-12-16T11:05:41.110Z,4.03
2022-12-16T11:08:41.572Z,4.00
2022-12-16T11:11:48.158Z,4.33
2022-12-16T11:14:36.131Z,4.07
2022-12-16T11:17:33.457Z,3.73
2022-12-16T11:20:38.971Z,3.57
2022-12-16T11:23:36.752Z,3.90
2022-12-16T11:26:36.344Z,3.53
2022-12-16T11:29:32.906Z,3.40
2022-12-16T11:32:37.072Z,3.60
2022-12-16T11:35:25.027Z,3.50
2022-12-16T11:38:12.393Z,3.43
2022-12-16T11:40:58.686Z,4.23
2022-12-16T11:43:46.240Z,3.13
2022-12-16T11:46:45.585Z,3.47
2022-12-16T11:49:43.979Z,3.27
2022-12-16T11:52:37.802Z,3.97
2022-12-16T11:58:57.824Z,3.83
2022-12-16T12:01:56.184Z,3.40
2022-12-16T12:04:41.593Z,3.53
2022-12-16T12:07:53.430Z,4.73
2022-12-16T12:10:40.671Z,4.30
2022-12-16T12:13:48.645Z,4.47
2022-12-16T12:16:46.326Z,5.03
2022-12-16T12:19:51.788Z,6.23
2022-12-16T12:22:53.941Z,6.47
2022-12-16T12:25:45.849Z,6.47
2022-12-16T12:29:02.557Z,6.47
2022-12-16T12:31:53.158Z,6.07
2022-12-16T12:35:04.053Z,7.07
2022-12-16T12:38:06.810Z,6.63
2022-12-16T12:41:12.677Z,6.60
2022-12-16T12:44:03.771Z,6.87
2022-12-16T12:47:02.646Z,6.73
2022-12-16T12:50:13.079Z,7.13
2022-12-16T12:53:36.041Z,7.80
2022-12-16T12:56:48.650Z,8.10
2022-12-16T13:00:02.359Z,7.30
2022-12-16T13:02:58.465Z,7.43
2022-12-16T13:05:45.922Z,7.83
2022-12-16T13:08:57.302Z,8.87
2022-12-16T13:11:43.176Z,7.60
2022-12-16T13:14:50.611Z,7.90
2022-12-16T13:17:41.034Z,7.23
2022-12-16T13:20:51.489Z,7.90
2022-12-16T13:23:55.035Z,8.00
2022-12-16T13:26:50.345Z,7.20
2022-12-16T13:29:51.081Z,8.00
2022-12-16T13:33:06.230Z,8.37
2022-12-16T13:35:51.554Z,8.70
2022-12-16T13:38:37.196Z,7.67
2022-12-16T13:41:25.312Z,8.37
2022-12-16T13:44:18.551Z,8.63
2022-12-16T13:47:09.353Z,8.47
2022-12-16T13:49:54.539Z,7.83
2022-12-16T13:52:51.794Z,8.90
2022-12-16T13:55:49.530Z,8.53
2022-12-16T13:58:55.327Z,8.50
2022-12-16T14:01:59.447Z,8.80
2022-12-16T14:04:52.671Z,8.33
2022-12-16T14:07:41.142Z,8.43
2022-12-16T14:10:56.807Z,8.07
2022-12-16T14:13:47.545Z,8.30
2022-12-16T14:16:54.905Z,8.40
2022-12-16T14:20:04.986Z,7.97
2022-12-16T14:23:54.818Z,8.13
2022-12-16T14:26:32.608Z,7.93
2022-12-16T14:29:20.468Z,7.40
2022-12-16T14:32:05.960Z,8.07
2022-12-16T14:34:53.601Z,7.97
2022-12-16T14:37:56.657Z,9.00
2022-12-16T14:40:46.943Z,8.40
2022-12-16T14:43:38.111Z,8.50
2022-12-16T14:46:24.183Z,8.10
2022-12-16T14:49:10.413Z,9.30
2022-12-16T14:51:57.474Z,9.70
2022-12-16T14:54:45.940Z,9.70
2022-12-16T14:57:36.950Z,10.43
2022-12-16T15:00:28.708Z,9.07
2022-12-16T15:03:37.639Z,9.37
2022-12-16T15:06:28.044Z,8.73
2022-12-16T15:09:19.610Z,9.73
2022-12-16T15:12:08.137Z,9.83
2022-12-16T15:14:58.195Z,9.63
2022-12-16T15:18:00.184Z,8.57
2022-12-16T15:20:48.287Z,9.20
2022-12-16T15:23:45.575Z,9.67
2022-12-16T15:26:42.371Z,8.87
2022-12-16T15:29:53.571Z,10.67
2022-12-16T15:32:56.902Z,10.27
2022-12-16T15:35:43.850Z,9.03
2022-12-16T15:38:41.678Z,8.40
2022-12-16T15:41:36.872Z,10.50
2022-12-16T15:44:22.467Z,10.83
2022-12-16T15:47:07.873Z,9.83
2022-12-16T15:50:03.487Z,10.23
2022-12-16T15:52:52.406Z,10.90
2022-12-16T15:56:04.676Z,10.57
2022-12-16T15:58:55.448Z,10.40
2022-12-16T16:01:43.595Z,10.70
2022-12-16T16:04:43.701Z,10.63
2022-12-16T16:07:35.240Z,10.73
2022-12-16T16:10:41.719Z,10.83
2022-12-16T16:13:28.282Z,10.73
2022-12-16T16:16:14.771Z,10.33
2022-12-16T16:19:01.267Z,11.07
2022-12-16T16:21:47.903Z,11.37
2022-12-16T16:24:33.899Z,11.30
2022-12-16T16:27:21.391Z,11.77
2022-12-16T16:30:07.048Z,12.20
2022-12-16T16:32:52.335Z,12.47
2022-12-16T16:35:37.935Z,12.67
2022-12-16T16:38:23.072Z,13.67
2022-12-16T16:41:08.751Z,12.30
2022-12-16T16:43:54.259Z,10.80
2022-12-16T16:46:41.252Z,11.47
2022-12-16T16:49:31.098Z,11.77
2022-12-16T16:52:16.628Z,13.23
2022-12-16T16:55:02.077Z,12.70
2022-12-16T16:57:51.300Z,12.77
2022-12-16T17:00:37.062Z,13.73
2022-12-16T17:03:22.861Z,11.90
2022-12-16T17:06:08.330Z,12.47
2022-12-16T17:08:53.716Z,11.33
2022-12-16T17:11:40.615Z,12.00
2022-12-16T17:14:35.503Z,11.93
2022-12-16T17:17:21.175Z,13.23
2022-12-16T17:20:06.806Z,12.33
2022-12-16T17:22:52.434Z,13.53
2022-12-16T17:25:38.076Z,13.77
2022-12-16T17:28:24.103Z,13.97
2022-12-16T17:31:09.887Z,14.93
2022-12-16T17:33:55.121Z,14.37
2022-12-16T17:36:40.721Z,13.97
2022-12-16T17:39:26.486Z,13.30
2022-12-16T17:42:11.994Z,15.20
2022-12-16T17:44:57.497Z,14.97
2022-12-16T17:47:43.024Z,14.80
2022-12-16T17:50:29.163Z,13.70
2022-12-16T17:53:16.385Z,15.23
2022-12-16T17:56:01.986Z,13.80
2022-12-16T17:58:53.018Z,14.90
2022-12-16T18:01:39.138Z,14.33
2022-12-16T18:04:25.578Z,14.57
2022-12-16T18:07:10.954Z,14.70
2022-12-16T18:09:56.438Z,15.17
2022-12-16T18:12:42.230Z,14.13
2022-12-16T18:15:28.241Z,14.70
2022-12-16T18:18:13.745Z,14.63
2022-12-16T18:20:59.265Z,14.83
2022-12-16T18:23:48.461Z,14.57
2022-12-16T18:26:34.479Z,15.43
2022-12-16T18:29:19.842Z,16.53
2022-12-16T18:32:07.484Z,15.43
2022-12-16T18:34:53.147Z,14.80
2022-12-16T18:37:38.603Z,15.77
2022-12-16T18:40:24.723Z,17.70
2022-12-16T18:43:10.120Z,16.10
2022-12-16T18:45:55.719Z,15.63
2022-12-16T18:48:40.956Z,16.60
2022-12-16T18:51:27.019Z,16.20
2022-12-16T18:54:12.397Z,15.83
2022-12-16T18:56:57.899Z,16.40
2022-12-16T18:59:43.444Z,15.50
2022-12-16T19:02:29.104Z,15.03
2022-12-16T19:05:14.506Z,16.03
2022-12-16T19:08:00.003Z,18.47
2022-12-16T19:10:45.393Z,17.07
2022-12-16T19:13:33.916Z,16.77
2022-12-16T19:16:19.584Z,15.67
2022-12-16T19:19:04.823Z,15.57
2022-12-16T19:21:52.190Z,16.87
2022-12-16T19:24:42.904Z,16.63
2022-12-16T19:27:28.768Z,17.60
2022-12-16T19:30:14.149Z,17.60
2022-12-16T19:32:59.644Z,17.33
2022-12-16T19:35:45.171Z,17.50
2022-12-16T19:38:32.470Z,17.70
2022-12-16T19:41:17.860Z,16.80
2022-12-16T19:44:06.156Z,17.47
2022-12-16T19:46:53.372Z,19.43
2022-12-16T19:49:44.373Z,18.97
2022-12-16T19:52:30.303Z,18.67
2022-12-16T19:58:20.695Z,18.10
2022-12-16T20:01:07.711Z,19.37
2022-12-16T20:06:58.501Z,19.97
2022-12-16T20:09:44.032Z,19.90
2022-12-16T20:12:29.678Z,20.10
2022-12-16T20:15:14.955Z,19.87
2022-12-16T20:18:00.643Z,18.87
2022-12-16T20:20:46.006Z,19.27
2022-12-16T20:23:31.291Z,19.37
2022-12-16T20:26:19.203Z,18.50
2022-12-16T20:29:05.239Z,18.87
2022-12-16T20:31:50.921Z,17.73
2022-12-16T20:34:37.239Z,18.17
2022-12-16T20:37:22.908Z,20.07
2022-12-16T20:40:08.619Z,19.53
2022-12-16T20:42:56.316Z,19.33
2022-12-16T20:45:41.821Z,20.30
2022-12-16T20:48:35.079Z,19.10
2022-12-16T20:51:26.551Z,18.63
2022-12-16T20:54:12.838Z,19.03
2022-12-16T20:56:58.421Z,18.63
2022-12-16T20:59:43.943Z,18.80
2022-12-16T21:02:34.091Z,18.20
2022-12-16T21:05:20.570Z,18.13
2022-12-16T21:08:06.230Z,18.40
2022-12-16T21:10:51.867Z,17.43
2022-12-16T21:13:37.199Z,17.70
2022-12-16T21:16:24.890Z,18.33
2022-12-16T21:19:11.001Z,17.70
2022-12-16T21:21:56.699Z,18.50
2022-12-16T21:24:42.386Z,18.47
2022-12-16T21:27:27.830Z,18.03
2022-12-16T21:30:13.095Z,18.13
2022-12-16T21:32:58.502Z,17.03
2022-12-16T21:35:43.933Z,18.33
2022-12-16T21:38:31.588Z,18.00
2022-12-16T21:41:17.007Z,19.43
2022-12-16T21:44:02.612Z,19.97
2022-12-16T21:46:48.270Z,17.43
2022-12-16T21:49:33.465Z,18.50
2022-12-16T21:52:18.914Z,17.70
2022-12-16T21:55:04.165Z,17.83
2022-12-16T21:57:49.700Z,18.90
2022-12-16T22:00:35.454Z,17.43
2022-12-16T22:03:20.937Z,18.00
2022-12-16T22:06:06.531Z,17.73
2022-12-16T22:08:52.104Z,17.83
2022-12-16T22:11:42.106Z,18.27
2022-12-16T22:14:27.621Z,18.13
2022-12-16T22:17:13.103Z,17.40
2022-12-16T22:19:58.252Z,18.33
2022-12-16T22:22:43.866Z,18.50
2022-12-16T22:25:29.460Z,17.33
2022-12-16T22:28:15.022Z,16.20
2022-12-16T22:31:00.419Z,18.57
2022-12-16T22:33:45.647Z,18.73
2022-12-16T22:36:32.727Z,17.53
2022-12-16T22:39:18.138Z,17.83
2022-12-16T22:42:03.554Z,17.77
2022-12-16T22:44:49.171Z,18.90
2022-12-16T22:47:34.692Z,19.07
2022-12-16T22:50:37.041Z,17.13
2022-12-16T22:53:22.365Z,17.27
2022-12-16T22:56:12.411Z,19.00
2022-12-16T22:58:58.589Z,16.67
2022-12-16T23:01:44.234Z,17.80
2022-12-16T23:04:29.672Z,18.97
2022-12-16T23:07:15.064Z,19.47
2022-12-16T23:10:00.363Z,17.90
2022-12-16T23:12:45.881Z,17.70
2022-12-16T23:15:32.422Z,18.37
2022-12-16T23:18:18.648Z,18.00
2022-12-16T23:21:09.656Z,19.00
2022-12-16T23:23:56.816Z,18.83
2022-12-16T23:26:42.229Z,19.13
2022-12-16T23:29:27.806Z,19.47
2022-12-16T23:32:13.263Z,17.47
2022-12-16T23:34:58.801Z,19.17
2022-12-16T23:37:44.460Z,18.57
2022-12-16T23:40:30.266Z,18.13
2022-12-16T23:43:15.797Z,17.97
2022-12-16T23:46:02.402Z,19.03
2022-12-16T23:48:47.589Z,18.17
2022-12-16T23:51:33.107Z,20.07
2022-12-16T23:54:18.597Z,20.23
2022-12-16T23:57:04.153Z,19.53
2022-12-16T23:59:49.725Z,17.90
